sensor_id;sensor_type;location;lat;lon;timestamp;pressure;altitude;pressure_sealevel;temperature;humidity
61697;BME280;47610;52.252;20.922;2023-03-14T00:03:29;98628.31;;;8.83;100.00
61697;BME280;47610;52.252;20.922;2023-03-14T00:08:33;98627.40;;;8.77;100.00
61697;BME280;47610;52.252;20.922;2023-03-14T00:13:38;98624.80;;;8.73;100.00
61697;BME280;47610;52.252;20.922;2023-03-14T00:18:43;98613.23;;;8.68;100.00
61697;BME280;47610;52.252;20.922;2023-03-14T00:23:46;98608.58;;;8.63;100.00
61697;BME280;47610;52.252;20.922;2023-03-14T00:28:52;98615.35;;;8.60;100.00
61697;BME280;47610;52.252;20.922;2023-03-14T00:33:58;98597.67;;;8.61;100.00
61697;BME280;47610;52.252;20.922;2023-03-14T00:39:01;98589.70;;;8.61;100.00
61697;BME280;47610;52.252;20.922;2023-03-14T00:44:05;98585.34;;;8.60;100.00
61697;BME280;47610;52.252;20.922;2023-03-14T00:49:08;98583.02;;;8.56;100.00
61697;BME280;47610;52.252;20.922;2023-03-14T00:54:12;98562.64;;;8.49;100.00
61697;BME280;47610;52.252;20.922;2023-03-14T00:59:17;98557.02;;;8.40;100.00
61697;BME280;47610;52.252;20.922;2023-03-14T01:04:20;98557.71;;;8.29;100.00
61697;BME280;47610;52.252;20.922;2023-03-14T01:09:23;98551.22;;;8.21;100.00
61697;BME280;47610;52.252;20.922;2023-03-14T01:14:27;98549.48;;;8.15;100.00
61697;BME280;47610;52.252;20.922;2023-03-14T01:19:31;98554.45;;;8.07;100.00
61697;BME280;47610;52.252;20.922;2023-03-14T01:24:35;98554.08;;;8.01;100.00
61697;BME280;47610;52.252;20.922;2023-03-14T01:29:40;98547.85;;;7.95;100.00
61697;BME280;47610;52.252;20.922;2023-03-14T01:34:43;98543.32;;;7.85;100.00
61697;BME280;47610;52.252;20.922;2023-03-14T01:39:47;98538.27;;;7.76;100.00
61697;BME280;47610;52.252;20.922;2023-03-14T01:44:54;98535.58;;;7.68;100.00
61697;BME280;47610;52.252;20.922;2023-03-14T01:50:01;98536.94;;;7.59;100.00
61697;BME280;47610;52.252;20.922;2023-03-14T01:55:12;98532.56;;;7.50;100.00
61697;BME280;47610;52.252;20.922;2023-03-14T02:00:20;98537.79;;;7.42;100.00
61697;BME280;47610;52.252;20.922;2023-03-14T02:05:28;98525.92;;;7.34;100.00
61697;BME280;47610;52.252;20.922;2023-03-14T02:10:39;98518.45;;;7.29;100.00
61697;BME280;47610;52.252;20.922;2023-03-14T02:15:48;98508.92;;;7.23;100.00
61697;BME280;47610;52.252;20.922;2023-03-14T02:20:55;98500.27;;;7.17;100.00
61697;BME280;47610;52.252;20.922;2023-03-14T02:26:08;98499.70;;;7.11;100.00
61697;BME280;47610;52.252;20.922;2023-03-14T02:31:15;98485.78;;;7.06;100.00
61697;BME280;47610;52.252;20.922;2023-03-14T02:36:20;98464.84;;;6.95;100.00
61697;BME280;47610;52.252;20.922;2023-03-14T02:41:24;98464.00;;;6.93;100.00
61697;BME280;47610;52.252;20.922;2023-03-14T02:46:27;98437.48;;;6.86;100.00
61697;BME280;47610;52.252;20.922;2023-03-14T02:51:31;98443.06;;;6.82;100.00
61697;BME280;47610;52.252;20.922;2023-03-14T02:56:35;98441.17;;;6.78;100.00
61697;BME280;47610;52.252;20.922;2023-03-14T03:01:40;98441.19;;;6.75;100.00
61697;BME280;47610;52.252;20.922;2023-03-14T03:06:44;98429.36;;;6.73;100.00
61697;BME280;47610;52.252;20.922;2023-03-14T03:11:47;98430.81;;;6.72;100.00
61697;BME280;47610;52.252;20.922;2023-03-14T03:16:51;98442.73;;;6.68;100.00
61697;BME280;47610;52.252;20.922;2023-03-14T03:21:54;98451.71;;;6.64;100.00
61697;BME280;47610;52.252;20.922;2023-03-14T03:26:57;98442.42;;;6.57;100.00
61697;BME280;47610;52.252;20.922;2023-03-14T03:32:00;98438.19;;;6.50;100.00
61697;BME280;47610;52.252;20.922;2023-03-14T03:37:04;98431.30;;;6.44;100.00
61697;BME280;47610;52.252;20.922;2023-03-14T03:42:08;98430.45;;;6.39;100.00
61697;BME280;47610;52.252;20.922;2023-03-14T03:47:12;98430.47;;;6.37;100.00
61697;BME280;47610;52.252;20.922;2023-03-14T03:52:16;98426.88;;;6.33;100.00
61697;BME280;47610;52.252;20.922;2023-03-14T03:57:20;98425.83;;;6.29;100.00
61697;BME280;47610;52.252;20.922;2023-03-14T04:02:25;98423.86;;;6.28;100.00
61697;BME280;47610;52.252;20.922;2023-03-14T04:07:26;98424.10;;;6.27;100.00
61697;BME280;47610;52.252;20.922;2023-03-14T04:12:30;98425.71;;;6.25;100.00
61697;BME280;47610;52.252;20.922;2023-03-14T04:17:33;98432.45;;;6.21;100.00
61697;BME280;47610;52.252;20.922;2023-03-14T04:22:36;98424.83;;;6.15;100.00
61697;BME280;47610;52.252;20.922;2023-03-14T04:27:39;98415.45;;;6.10;100.00
61697;BME280;47610;52.252;20.922;2023-03-14T04:32:42;98424.83;;;6.06;100.00
61697;BME280;47610;52.252;20.922;2023-03-14T04:37:46;98423.20;;;6.02;100.00
61697;BME280;47610;52.252;20.922;2023-03-14T04:42:49;98420.54;;;6.00;100.00
61697;BME280;47610;52.252;20.922;2023-03-14T04:47:53;98405.86;;;6.04;100.00
61697;BME280;47610;52.252;20.922;2023-03-14T04:52:57;98388.98;;;6.11;100.00
61697;BME280;47610;52.252;20.922;2023-03-14T04:58:00;98372.80;;;6.19;100.00
61697;BME280;47610;52.252;20.922;2023-03-14T05:03:04;98364.48;;;6.30;100.00
61697;BME280;47610;52.252;20.922;2023-03-14T05:08:07;98364.77;;;6.41;100.00
61697;BME280;47610;52.252;20.922;2023-03-14T05:13:11;98356.90;;;6.51;100.00
61697;BME280;47610;52.252;20.922;2023-03-14T05:18:15;98345.30;;;6.61;100.00
61697;BME280;47610;52.252;20.922;2023-03-14T05:23:18;98340.21;;;6.71;100.00
61697;BME280;47610;52.252;20.922;2023-03-14T05:28:21;98345.79;;;6.81;100.00
61697;BME280;47610;52.252;20.922;2023-03-14T05:33:25;98343.43;;;6.90;100.00
61697;BME280;47610;52.252;20.922;2023-03-14T05:38:28;98326.32;;;7.05;100.00
61697;BME280;47610;52.252;20.922;2023-03-14T05:43:31;98321.78;;;7.18;100.00
61697;BME280;47610;52.252;20.922;2023-03-14T05:48:34;98307.39;;;7.21;100.00
61697;BME280;47610;52.252;20.922;2023-03-14T05:53:38;98307.07;;;7.32;100.00
61697;BME280;47610;52.252;20.922;2023-03-14T05:58:41;98289.59;;;7.58;100.00
61697;BME280;47610;52.252;20.922;2023-03-14T06:03:44;98286.73;;;7.89;100.00
61697;BME280;47610;52.252;20.922;2023-03-14T06:08:48;98272.45;;;8.18;100.00
61697;BME280;47610;52.252;20.922;2023-03-14T06:13:52;98269.93;;;8.36;100.00
61697;BME280;47610;52.252;20.922;2023-03-14T06:18:55;98259.46;;;8.33;100.00
61697;BME280;47610;52.252;20.922;2023-03-14T06:23:58;98261.98;;;8.32;100.00
61697;BME280;47610;52.252;20.922;2023-03-14T06:29:02;98267.41;;;8.52;100.00
61697;BME280;47610;52.252;20.922;2023-03-14T06:34:05;98273.80;;;9.07;100.00
61697;BME280;47610;52.252;20.922;2023-03-14T06:39:09;98269.10;;;11.87;100.00
61697;BME280;47610;52.252;20.922;2023-03-14T06:44:12;98276.71;;;13.62;100.00
61697;BME280;47610;52.252;20.922;2023-03-14T06:49:15;98276.21;;;14.97;93.37
61697;BME280;47610;52.252;20.922;2023-03-14T06:54:18;98270.58;;;15.35;83.22
61697;BME280;47610;52.252;20.922;2023-03-14T06:59:22;98258.03;;;14.98;83.61
61697;BME280;47610;52.252;20.922;2023-03-14T07:04:25;98268.98;;;14.58;83.38
61697;BME280;47610;52.252;20.922;2023-03-14T07:09:29;98294.97;;;14.43;85.72
61697;BME280;47610;52.252;20.922;2023-03-14T07:14:32;98306.42;;;14.16;87.81
61697;BME280;47610;52.252;20.922;2023-03-14T07:19:35;98310.53;;;14.00;88.55
61697;BME280;47610;52.252;20.922;2023-03-14T07:24:39;98302.13;;;15.00;85.06
61697;BME280;47610;52.252;20.922;2023-03-14T07:29:42;98302.14;;;18.50;72.92
61697;BME280;47610;52.252;20.922;2023-03-14T07:34:47;98309.68;;;22.72;54.38
61697;BME280;47610;52.252;20.922;2023-03-14T07:39:50;98311.46;;;26.87;41.16
61697;BME280;47610;52.252;20.922;2023-03-14T07:44:56;98320.24;;;28.62;32.28
61697;BME280;47610;52.252;20.922;2023-03-14T07:49:59;98316.43;;;26.87;30.58
61697;BME280;47610;52.252;20.922;2023-03-14T07:55:05;98296.68;;;26.12;33.83
61697;BME280;47610;52.252;20.922;2023-03-14T08:00:13;98297.12;;;25.87;32.47
61697;BME280;47610;52.252;20.922;2023-03-14T08:05:16;98297.81;;;25.49;33.91
61697;BME280;47610;52.252;20.922;2023-03-14T08:10:20;98297.47;;;25.18;34.10
61697;BME280;47610;52.252;20.922;2023-03-14T08:15:22;98301.80;;;25.89;32.88
61697;BME280;47610;52.252;20.922;2023-03-14T08:20:27;98307.48;;;24.93;32.02
61697;BME280;47610;52.252;20.922;2023-03-14T08:25:31;98304.95;;;23.45;35.17
61697;BME280;47610;52.252;20.922;2023-03-14T08:30:34;98305.16;;;22.35;37.21
61697;BME280;47610;52.252;20.922;2023-03-14T08:35:38;98311.83;;;21.09;40.52
61697;BME280;47610;52.252;20.922;2023-03-14T08:40:41;98314.52;;;20.00;45.13
61697;BME280;47610;52.252;20.922;2023-03-14T08:45:44;98313.12;;;19.18;48.47
61697;BME280;47610;52.252;20.922;2023-03-14T08:50:51;98310.39;;;18.65;51.87
61697;BME280;47610;52.252;20.922;2023-03-14T08:55:56;98301.78;;;19.08;53.17
61697;BME280;47610;52.252;20.922;2023-03-14T09:00:59;98297.48;;;19.32;52.34
61697;BME280;47610;52.252;20.922;2023-03-14T09:06:08;98282.15;;;20.18;49.21
61697;BME280;47610;52.252;20.922;2023-03-14T09:11:11;98291.34;;;19.42;49.82
61697;BME280;47610;52.252;20.922;2023-03-14T09:16:15;98281.16;;;18.59;52.99
61697;BME280;47610;52.252;20.922;2023-03-14T09:21:19;98276.25;;;17.93;56.31
61697;BME280;47610;52.252;20.922;2023-03-14T09:26:22;98266.90;;;17.58;59.52
61697;BME280;47610;52.252;20.922;2023-03-14T09:31:25;98261.19;;;17.90;59.50
61697;BME280;47610;52.252;20.922;2023-03-14T09:36:29;98257.52;;;18.06;58.41
61697;BME280;47610;52.252;20.922;2023-03-14T09:41:34;98246.80;;;18.34;57.98
61697;BME280;47610;52.252;20.922;2023-03-14T09:46:44;98241.79;;;18.40;58.06
61697;BME280;47610;52.252;20.922;2023-03-14T09:51:51;98243.39;;;18.85;55.60
61697;BME280;47610;52.252;20.922;2023-03-14T09:56:55;98231.40;;;19.20;55.89
61697;BME280;47610;52.252;20.922;2023-03-14T10:02:04;98215.48;;;19.55;53.40
61697;BME280;47610;52.252;20.922;2023-03-14T10:07:16;98213.23;;;19.89;50.84
61697;BME280;47610;52.252;20.922;2023-03-14T10:12:20;98207.76;;;20.34;50.22
61697;BME280;47610;52.252;20.922;2023-03-14T10:17:40;98214.34;;;20.66;51.49
61697;BME280;47610;52.252;20.922;2023-03-14T10:22:44;98218.75;;;20.70;51.55
61697;BME280;47610;52.252;20.922;2023-03-14T10:27:47;98211.27;;;20.33;50.97
61697;BME280;47610;52.252;20.922;2023-03-14T10:32:50;98212.81;;;19.75;52.46
61697;BME280;47610;52.252;20.922;2023-03-14T10:37:55;98208.88;;;18.97;55.42
61697;BME280;47610;52.252;20.922;2023-03-14T10:43:01;98195.94;;;18.61;57.76
61697;BME280;47610;52.252;20.922;2023-03-14T10:48:20;98193.67;;;19.18;57.50
61697;BME280;47610;52.252;20.922;2023-03-14T10:53:25;98183.88;;;20.28;53.79
61697;BME280;47610;52.252;20.922;2023-03-14T10:58:30;98185.25;;;20.08;53.37
61697;BME280;47610;52.252;20.922;2023-03-14T11:03:37;98186.83;;;19.62;54.00
61697;BME280;47610;52.252;20.922;2023-03-14T11:08:48;98187.03;;;18.96;55.72
61697;BME280;47610;52.252;20.922;2023-03-14T11:14:04;98187.49;;;18.45;59.11
61697;BME280;47610;52.252;20.922;2023-03-14T11:19:23;98185.34;;;17.80;61.70
61697;BME280;47610;52.252;20.922;2023-03-14T11:24:43;98193.00;;;17.22;64.53
61697;BME280;47610;52.252;20.922;2023-03-14T11:29:55;98205.08;;;16.63;68.11
61697;BME280;47610;52.252;20.922;2023-03-14T11:35:03;98210.07;;;16.18;71.87
61697;BME280;47610;52.252;20.922;2023-03-14T11:40:14;98202.11;;;15.86;74.13
61697;BME280;47610;52.252;20.922;2023-03-14T11:45:22;98197.94;;;15.62;76.20
61697;BME280;47610;52.252;20.922;2023-03-14T11:50:31;98190.77;;;15.47;78.38
61697;BME280;47610;52.252;20.922;2023-03-14T11:55:37;98194.38;;;15.62;79.41
61697;BME280;47610;52.252;20.922;2023-03-14T12:00:43;98202.20;;;15.74;78.89
61697;BME280;47610;52.252;20.922;2023-03-14T12:05:58;98202.16;;;15.84;79.43
61697;BME280;47610;52.252;20.922;2023-03-14T12:11:10;98202.90;;;15.93;79.35
61697;BME280;47610;52.252;20.922;2023-03-14T12:16:32;98177.51;;;16.40;80.18
61697;BME280;47610;52.252;20.922;2023-03-14T12:21:49;98194.60;;;16.76;78.86
61697;BME280;47610;52.252;20.922;2023-03-14T12:26:55;98205.81;;;16.64;79.60
61697;BME280;47610;52.252;20.922;2023-03-14T12:32:22;98205.21;;;16.29;80.19
61697;BME280;47610;52.252;20.922;2023-03-14T12:37:33;98209.43;;;15.80;82.84
61697;BME280;47610;52.252;20.922;2023-03-14T12:42:50;98203.42;;;15.29;86.39
61697;BME280;47610;52.252;20.922;2023-03-14T12:48:00;98212.89;;;14.97;91.74
61697;BME280;47610;52.252;20.922;2023-03-14T12:58:41;98241.08;;;14.50;100.00
61697;BME280;47610;52.252;20.922;2023-03-14T13:03:49;98233.91;;;14.15;100.00
61697;BME280;47610;52.252;20.922;2023-03-14T13:08:53;98235.59;;;13.86;100.00
61697;BME280;47610;52.252;20.922;2023-03-14T13:13:59;98231.76;;;13.58;100.00
61697;BME280;47610;52.252;20.922;2023-03-14T13:19:09;98234.61;;;13.48;100.00
61697;BME280;47610;52.252;20.922;2023-03-14T13:24:24;98227.84;;;13.36;100.00
61697;BME280;47610;52.252;20.922;2023-03-14T13:29:29;98233.63;;;13.18;100.00
61697;BME280;47610;52.252;20.922;2023-03-14T13:34:35;98243.98;;;12.89;100.00
61697;BME280;47610;52.252;20.922;2023-03-14T13:39:40;98248.90;;;12.74;100.00
61697;BME280;47610;52.252;20.922;2023-03-14T13:44:44;98244.64;;;12.60;100.00
61697;BME280;47610;52.252;20.922;2023-03-14T13:49:49;98240.40;;;12.49;100.00
61697;BME280;47610;52.252;20.922;2023-03-14T13:54:55;98233.24;;;12.41;100.00
61697;BME280;47610;52.252;20.922;2023-03-14T14:00:03;98229.60;;;12.32;100.00
61697;BME280;47610;52.252;20.922;2023-03-14T14:05:11;98217.85;;;12.26;100.00
61697;BME280;47610;52.252;20.922;2023-03-14T14:10:15;98222.39;;;12.26;100.00
61697;BME280;47610;52.252;20.922;2023-03-14T14:15:21;98214.69;;;12.17;100.00
61697;BME280;47610;52.252;20.922;2023-03-14T14:20:30;98223.23;;;12.01;100.00
61697;BME280;47610;52.252;20.922;2023-03-14T14:25:36;98212.88;;;11.81;100.00
61697;BME280;47610;52.252;20.922;2023-03-14T14:30:39;98208.02;;;11.74;100.00
61697;BME280;47610;52.252;20.922;2023-03-14T14:35:44;98203.41;;;11.63;100.00
61697;BME280;47610;52.252;20.922;2023-03-14T14:40:54;98190.87;;;11.43;100.00
61697;BME280;47610;52.252;20.922;2023-03-14T14:45:58;98194.39;;;11.35;100.00
61697;BME280;47610;52.252;20.922;2023-03-14T14:51:05;98192.59;;;11.25;100.00
61697;BME280;47610;52.252;20.922;2023-03-14T14:56:17;98198.05;;;11.20;100.00
61697;BME280;47610;52.252;20.922;2023-03-14T15:01:23;98204.05;;;11.18;100.00
61697;BME280;47610;52.252;20.922;2023-03-14T15:06:30;98220.02;;;11.14;100.00
61697;BME280;47610;52.252;20.922;2023-03-14T15:11:34;98213.08;;;11.04;100.00
61697;BME280;47610;52.252;20.922;2023-03-14T15:16:37;98203.73;;;10.92;100.00
61697;BME280;47610;52.252;20.922;2023-03-14T15:21:44;98219.13;;;10.82;100.00
61697;BME280;47610;52.252;20.922;2023-03-14T15:26:47;98229.70;;;10.76;100.00
61697;BME280;47610;52.252;20.922;2023-03-14T15:31:50;98229.74;;;10.65;100.00
61697;BME280;47610;52.252;20.922;2023-03-14T15:36:55;98216.91;;;10.57;100.00
61697;BME280;47610;52.252;20.922;2023-03-14T15:41:58;98200.14;;;10.49;100.00
61697;BME280;47610;52.252;20.922;2023-03-14T15:47:01;98218.21;;;10.40;100.00
61697;BME280;47610;52.252;20.922;2023-03-14T15:52:06;98223.73;;;10.33;100.00
61697;BME280;47610;52.252;20.922;2023-03-14T15:57:09;98221.85;;;10.23;100.00
61697;BME280;47610;52.252;20.922;2023-03-14T16:02:12;98226.34;;;10.20;100.00
61697;BME280;47610;52.252;20.922;2023-03-14T16:07:17;98252.64;;;10.18;100.00
61697;BME280;47610;52.252;20.922;2023-03-14T16:12:20;98258.73;;;10.15;100.00
61697;BME280;47610;52.252;20.922;2023-03-14T16:17:23;98254.52;;;10.11;100.00
61697;BME280;47610;52.252;20.922;2023-03-14T16:22:27;98248.55;;;10.07;100.00
61697;BME280;47610;52.252;20.922;2023-03-14T16:27:31;98241.20;;;10.01;100.00
61697;BME280;47610;52.252;20.922;2023-03-14T16:32:33;98246.73;;;9.95;100.00
61697;BME280;47610;52.252;20.922;2023-03-14T16:37:36;98251.33;;;9.90;100.00
61697;BME280;47610;52.252;20.922;2023-03-14T16:42:40;98256.63;;;9.84;100.00
61697;BME280;47610;52.252;20.922;2023-03-14T16:47:44;98256.79;;;9.81;100.00
61697;BME280;47610;52.252;20.922;2023-03-14T16:52:49;98258.14;;;9.77;100.00
61697;BME280;47610;52.252;20.922;2023-03-14T16:57:52;98273.77;;;9.74;100.00
61697;BME280;47610;52.252;20.922;2023-03-14T17:02:55;98270.72;;;9.71;100.00
61697;BME280;47610;52.252;20.922;2023-03-14T17:08:00;98257.27;;;9.69;100.00
61697;BME280;47610;52.252;20.922;2023-03-14T17:13:02;98254.64;;;9.66;100.00
61697;BME280;47610;52.252;20.922;2023-03-14T17:18:07;98263.89;;;9.65;100.00
61697;BME280;47610;52.252;20.922;2023-03-14T17:23:10;98269.52;;;9.62;100.00
61697;BME280;47610;52.252;20.922;2023-03-14T17:28:13;98278.02;;;9.64;100.00
61697;BME280;47610;52.252;20.922;2023-03-14T17:33:16;98275.52;;;9.65;100.00
61697;BME280;47610;52.252;20.922;2023-03-14T17:38:20;98276.91;;;9.64;100.00
61697;BME280;47610;52.252;20.922;2023-03-14T17:43:24;98275.10;;;9.64;100.00
61697;BME280;47610;52.252;20.922;2023-03-14T17:48:29;98274.77;;;9.66;100.00
61697;BME280;47610;52.252;20.922;2023-03-14T17:53:34;98281.38;;;9.67;100.00
61697;BME280;47610;52.252;20.922;2023-03-14T17:58:37;98278.75;;;9.69;100.00
61697;BME280;47610;52.252;20.922;2023-03-14T18:03:41;98281.48;;;9.70;100.00
61697;BME280;47610;52.252;20.922;2023-03-14T18:08:46;98278.95;;;9.71;100.00
61697;BME280;47610;52.252;20.922;2023-03-14T18:13:50;98284.88;;;9.73;100.00
61697;BME280;47610;52.252;20.922;2023-03-14T18:18:55;98284.49;;;9.77;100.00
61697;BME280;47610;52.252;20.922;2023-03-14T18:23:58;98289.57;;;9.80;100.00
61697;BME280;47610;52.252;20.922;2023-03-14T18:29:01;98284.30;;;9.82;100.00
61697;BME280;47610;52.252;20.922;2023-03-14T18:34:07;98284.82;;;9.83;100.00
61697;BME280;47610;52.252;20.922;2023-03-14T18:39:11;98293.48;;;9.87;100.00
61697;BME280;47610;52.252;20.922;2023-03-14T18:44:15;98296.16;;;9.89;100.00
61697;BME280;47610;52.252;20.922;2023-03-14T18:49:19;98289.92;;;9.88;100.00
61697;BME280;47610;52.252;20.922;2023-03-14T18:54:22;98285.39;;;9.82;100.00
61697;BME280;47610;52.252;20.922;2023-03-14T18:59:26;98299.10;;;9.77;100.00
61697;BME280;47610;52.252;20.922;2023-03-14T19:04:29;98307.66;;;9.74;100.00
61697;BME280;47610;52.252;20.922;2023-03-14T19:09:33;98312.92;;;9.69;100.00
61697;BME280;47610;52.252;20.922;2023-03-14T19:14:36;98323.38;;;9.59;100.00
61697;BME280;47610;52.252;20.922;2023-03-14T19:19:39;98323.37;;;9.48;100.00
61697;BME280;47610;52.252;20.922;2023-03-14T19:24:44;98318.36;;;9.37;100.00
61697;BME280;47610;52.252;20.922;2023-03-14T19:29:46;98314.88;;;9.26;100.00
61697;BME280;47610;52.252;20.922;2023-03-14T19:34:49;98315.42;;;9.20;100.00
61697;BME280;47610;52.252;20.922;2023-03-14T19:39:52;98308.45;;;9.12;100.00
61697;BME280;47610;52.252;20.922;2023-03-14T19:44:56;98316.34;;;9.07;100.00
61697;BME280;47610;52.252;20.922;2023-03-14T19:49:59;98314.17;;;9.03;100.00
61697;BME280;47610;52.252;20.922;2023-03-14T19:55:04;98305.52;;;8.97;100.00
61697;BME280;47610;52.252;20.922;2023-03-14T20:00:13;98306.00;;;8.93;100.00
61697;BME280;47610;52.252;20.922;2023-03-14T20:05:18;98309.58;;;8.89;100.00
61697;BME280;47610;52.252;20.922;2023-03-14T20:10:22;98317.33;;;8.85;100.00
61697;BME280;47610;52.252;20.922;2023-03-14T20:15:25;98316.54;;;8.82;100.00
61697;BME280;47610;52.252;20.922;2023-03-14T20:20:28;98316.05;;;8.76;100.00
61697;BME280;47610;52.252;20.922;2023-03-14T20:25:31;98324.36;;;8.71;100.00
61697;BME280;47610;52.252;20.922;2023-03-14T20:30:35;98322.25;;;8.67;100.00
61697;BME280;47610;52.252;20.922;2023-03-14T20:35:38;98328.08;;;8.63;100.00
61697;BME280;47610;52.252;20.922;2023-03-14T20:40:44;98328.27;;;8.57;100.00
61697;BME280;47610;52.252;20.922;2023-03-14T20:45:55;98326.16;;;8.51;100.00
61697;BME280;47610;52.252;20.922;2023-03-14T20:50:59;98322.20;;;8.46;100.00
61697;BME280;47610;52.252;20.922;2023-03-14T20:56:03;98318.73;;;8.38;100.00
61697;BME280;47610;52.252;20.922;2023-03-14T21:01:06;98323.20;;;8.37;100.00
61697;BME280;47610;52.252;20.922;2023-03-14T21:06:11;98322.14;;;8.31;100.00
61697;BME280;47610;52.252;20.922;2023-03-14T21:11:15;98326.09;;;8.28;100.00
61697;BME280;47610;52.252;20.922;2023-03-14T21:16:18;98334.71;;;8.25;100.00
61697;BME280;47610;52.252;20.922;2023-03-14T21:21:21;98319.66;;;8.19;100.00
61697;BME280;47610;52.252;20.922;2023-03-14T21:26:25;98325.11;;;8.23;100.00
61697;BME280;47610;52.252;20.922;2023-03-14T21:31:29;98327.41;;;8.21;100.00
61697;BME280;47610;52.252;20.922;2023-03-14T21:36:32;98328.48;;;8.17;100.00
61697;BME280;47610;52.252;20.922;2023-03-14T21:41:37;98333.13;;;8.18;100.00
61697;BME280;47610;52.252;20.922;2023-03-14T21:46:38;98336.80;;;8.25;100.00
61697;BME280;47610;52.252;20.922;2023-03-14T21:51:42;98331.92;;;8.27;100.00
61697;BME280;47610;52.252;20.922;2023-03-14T21:56:47;98336.30;;;8.34;100.00
61697;BME280;47610;52.252;20.922;2023-03-14T22:01:50;98343.40;;;8.41;100.00
61697;BME280;47610;52.252;20.922;2023-03-14T22:06:53;98347.20;;;8.48;100.00
61697;BME280;47610;52.252;20.922;2023-03-14T22:11:56;98355.02;;;8.54;100.00
61697;BME280;47610;52.252;20.922;2023-03-14T22:17:00;98361.79;;;8.57;100.00
61697;BME280;47610;52.252;20.922;2023-03-14T22:22:03;98363.77;;;8.61;100.00
61697;BME280;47610;52.252;20.922;2023-03-14T22:27:08;98367.14;;;8.62;100.00
61697;BME280;47610;52.252;20.922;2023-03-14T22:32:12;98356.79;;;8.64;100.00
61697;BME280;47610;52.252;20.922;2023-03-14T22:37:15;98362.48;;;8.64;100.00
61697;BME280;47610;52.252;20.922;2023-03-14T22:42:19;98362.98;;;8.63;100.00
61697;BME280;47610;52.252;20.922;2023-03-14T22:47:23;98363.02;;;8.64;100.00
61697;BME280;47610;52.252;20.922;2023-03-14T22:52:29;98363.63;;;8.67;100.00
61697;BME280;47610;52.252;20.922;2023-03-14T22:57:34;98370.73;;;8.71;100.00
61697;BME280;47610;52.252;20.922;2023-03-14T23:02:39;98379.45;;;8.74;100.00
61697;BME280;47610;52.252;20.922;2023-03-14T23:07:43;98383.59;;;8.80;100.00
61697;BME280;47610;52.252;20.922;2023-03-14T23:12:47;98388.91;;;8.87;100.00
61697;BME280;47610;52.252;20.922;2023-03-14T23:17:51;98390.80;;;8.92;100.00
61697;BME280;47610;52.252;20.922;2023-03-14T23:22:54;98400.02;;;8.93;100.00
61697;BME280;47610;52.252;20.922;2023-03-14T23:27:58;98406.89;;;8.92;100.00
61697;BME280;47610;52.252;20.922;2023-03-14T23:33:01;98409.02;;;8.92;100.00
61697;BME280;47610;52.252;20.922;2023-03-14T23:38:06;98413.90;;;8.95;100.00
61697;BME280;47610;52.252;20.922;2023-03-14T23:43:10;98416.63;;;8.96;100.00
61697;BME280;47610;52.252;20.922;2023-03-14T23:48:13;98426.64;;;8.99;100.00
61697;BME280;47610;52.252;20.922;2023-03-14T23:53:17;98428.74;;;9.03;100.00
61697;BME280;47610;52.252;20.922;2023-03-14T23:58:21;98436.90;;;9.06;100.00
